Nisswa, Minnesota
Current Conditions -  °F | °C
As of 2:53 PM on Saturday 25 Oct 2014 (Local Time) from KBRD Reporting Station
Clear Clear  
Wind Chill: 58°   Ceiling: Unl
Heat Index: 58°   Visibility: 10mi
Dew Point: 23°   Wind: 15mph
Humidity: 26%   Direction: 290°WNW
Pressure: 30.03"   Gusts: 25mph
Location:  46.52°N, 94.29°W
Report Text: KBRD 251953Z AUTO 29013G22KT 10SM CLR 14/M05 A3003 RMK AO2 SLP171 T01441050
Loading
Personal Weather Stations






























Interactive Weather Map
Tropical Storm Tracking
New forecast layout! Learn more

10-Day Weather Forecast

Advertisements
Track Severe Weather on mobile